Time;durP1;ratioP1;P1;durP2;ratioP2;P2;SDS_P1;SDS_P2;PMS_P1;PMS_P2;Temp;Humidity;BMP_temperature;BMP_pressure;BME280_temperature;BME280_humidity;BME280_pressure;Samples;Min_cycle;Max_cycle;Signal;HPM_P1;HPM_P2
2021/12/10 00:02:15;;;;;;;4.28;3.15;;;;;;;-11.39;69.64;100784.41;4846529;29;20483;-75
2021/12/10 00:04:42;;;;;;;6.20;3.38;;;;;;;-11.52;69.54;100778.81;4847632;29;20051;-74
2021/12/10 00:07:27;;;;;;;6.32;3.22;;;;;;;-11.48;70.48;100775.50;4864088;29;20056;-75
2021/12/10 00:10:02;;;;;;;7.05;4.15;;;;;;;-11.52;69.85;100787.41;4846901;29;20048;-74
2021/12/10 00:12:35;;;;;;;5.90;3.33;;;;;;;-11.57;70.20;100796.66;4855734;29;20511;-75
2021/12/10 00:15:02;;;;;;;5.72;3.67;;;;;;;-11.58;70.28;100787.19;4871981;29;20057;-73
2021/12/10 00:17:28;;;;;;;6.07;3.33;;;;;;;-11.59;71.01;100805.13;4873547;29;20044;-75
2021/12/10 00:19:57;;;;;;;7.18;4.25;;;;;;;-11.58;70.86;100812.91;4856001;29;20047;-75
2021/12/10 00:22:35;;;;;;;6.65;3.75;;;;;;;-11.57;70.69;100801.81;4841096;29;20055;-75
2021/12/10 00:25:00;;;;;;;5.70;3.75;;;;;;;-11.60;70.49;100796.53;4873460;29;20180;-76
2021/12/10 00:27:29;;;;;;;4.82;3.22;;;;;;;-11.61;70.52;100799.94;4840596;29;20143;-78
2021/12/10 00:30:07;;;;;;;6.97;3.42;;;;;;;-11.61;71.17;100809.34;4848546;29;20063;-75
2021/12/10 00:32:38;;;;;;;7.47;4.00;;;;;;;-11.55;70.65;100804.44;4867646;29;20103;-76
2021/12/10 00:35:10;;;;;;;6.05;3.90;;;;;;;-11.65;71.08;100803.22;4870130;29;20675;-72
2021/12/10 00:37:36;;;;;;;8.27;4.43;;;;;;;-11.71;71.02;100797.84;4870127;29;20120;-75
2021/12/10 00:40:04;;;;;;;5.70;3.65;;;;;;;-11.74;70.83;100808.06;4872093;29;20127;-76
2021/12/10 00:42:32;;;;;;;5.35;3.08;;;;;;;-11.55;70.43;100799.28;4873708;29;20440;-73
2021/12/10 00:44:59;;;;;;;8.75;5.13;;;;;;;-11.68;70.82;100808.25;4853422;29;20048;-76
2021/12/10 00:47:25;;;;;;;9.30;4.03;;;;;;;-11.71;70.96;100808.13;4871384;29;20096;-76
2021/12/10 00:49:51;;;;;;;6.03;3.47;;;;;;;-11.51;70.57;100807.16;4855942;29;20040;-72
2021/12/10 00:52:16;;;;;;;5.72;3.42;;;;;;;-11.62;70.40;100811.03;4852912;29;20145;-77
2021/12/10 00:54:42;;;;;;;7.70;4.40;;;;;;;-11.68;70.91;100804.81;4858292;29;20545;-75
2021/12/10 00:57:08;;;;;;;5.00;3.60;;;;;;;-11.60;70.50;100804.25;4876015;29;20084;-77
2021/12/10 00:59:33;;;;;;;14.35;5.53;;;;;;;-11.54;69.62;100809.63;4869811;29;20048;-76
2021/12/10 01:01:59;;;;;;;4.63;2.78;;;;;;;-11.62;69.96;100805.88;4840166;29;20062;-75
2021/12/10 01:04:27;;;;;;;8.02;4.20;;;;;;;-11.60;70.06;100811.97;4839182;29;20466;-73
2021/12/10 01:06:55;;;;;;;11.57;4.85;;;;;;;-11.74;69.84;100820.91;4870289;29;20400;-71
2021/12/10 01:09:27;;;;;;;10.40;5.25;;;;;;;-11.77;70.54;100811.41;4869734;29;20121;-75
2021/12/10 01:12:00;;;;;;;10.30;4.18;;;;;;;-11.78;70.19;100811.34;4849605;29;20044;-76
2021/12/10 01:14:51;;;;;;;6.50;3.45;;;;;;;-11.64;70.55;100814.41;4837590;29;20047;-74
2021/12/10 01:25:35;;;;;;;8.77;4.97;;;;;;;-11.73;70.74;100802.06;4870464;29;20370;-77
2021/12/10 01:28:02;;;;;;;4.47;2.20;;;;;;;-11.84;71.02;100829.13;4881963;29;20032;-77
2021/12/10 01:30:32;;;;;;;12.75;5.97;;;;;;;-11.94;70.50;100821.88;4865706;29;20047;-75
2021/12/10 01:33:05;;;;;;;9.93;5.13;;;;;;;-11.97;70.47;100829.50;4882263;29;20040;-75
2021/12/10 01:35:35;;;;;;;4.82;3.17;;;;;;;-11.88;71.03;100822.13;4865402;29;20044;-77
2021/12/10 01:38:01;;;;;;;13.13;5.07;;;;;;;-11.84;70.91;100822.28;4864947;29;20535;-75
2021/12/10 01:40:28;;;;;;;11.73;4.82;;;;;;;-11.99;71.20;100815.72;4881659;29;20495;-74
2021/12/10 01:43:01;;;;;;;2.67;2.20;;;;;;;-11.93;70.73;100824.53;4865020;29;20383;-77
2021/12/10 01:45:32;;;;;;;10.23;5.35;;;;;;;-11.94;71.58;100821.88;4882081;29;20104;-77
2021/12/10 01:48:09;;;;;;;9.80;4.97;;;;;;;-11.90;71.46;100821.19;4865070;29;20044;-77
2021/12/10 01:50:36;;;;;;;4.35;3.33;;;;;;;-11.80;70.85;100820.72;4849276;29;20051;-77
2021/12/10 01:53:09;;;;;;;5.70;2.70;;;;;;;-11.83;71.34;100823.16;4881921;29;20048;-77
2021/12/10 01:55:37;;;;;;;10.48;4.85;;;;;;;-11.89;71.14;100825.53;4872077;29;20040;-76
2021/12/10 01:58:05;;;;;;;10.82;5.43;;;;;;;-11.97;71.41;100834.66;4830498;29;20580;-77
2021/12/10 02:00:33;;;;;;;6.75;4.25;;;;;;;-11.90;70.62;100837.50;4846216;29;20049;-73
2021/12/10 02:02:59;;;;;;;9.57;4.97;;;;;;;-12.05;70.61;100836.03;4846196;29;20044;-76
2021/12/10 02:05:24;;;;;;;9.55;5.10;;;;;;;-12.15;70.84;100834.81;4843357;29;20109;-77
2021/12/10 02:07:49;;;;;;;9.88;4.70;;;;;;;-12.16;71.19;100840.75;4844702;29;20061;-78
2021/12/10 02:10:18;;;;;;;6.32;3.67;;;;;;;-12.04;71.18;100843.81;4844746;29;20060;-77
2021/12/10 02:12:43;;;;;;;5.53;2.85;;;;;;;-11.88;71.18;100856.44;4843848;29;20049;-77
2021/12/10 02:15:11;;;;;;;7.55;3.75;;;;;;;-11.80;71.01;100846.41;4827521;29;20052;-77
2021/12/10 02:17:46;;;;;;;7.80;4.15;;;;;;;-11.94;71.01;100845.91;4827267;29;20048;-76
2021/12/10 02:20:20;;;;;;;9.27;4.88;;;;;;;-12.12;71.49;100847.78;4843317;29;20128;-75
2021/12/10 02:22:46;;;;;;;9.07;4.22;;;;;;;-12.13;71.08;100844.34;4826490;29;20049;-76
2021/12/10 02:25:13;;;;;;;11.07;5.10;;;;;;;-12.18;71.61;100845.84;4842537;29;20045;-74
2021/12/10 02:27:38;;;;;;;10.48;5.10;;;;;;;-12.19;71.32;100846.66;4825698;29;20526;-74
2021/12/10 02:30:07;;;;;;;6.45;3.60;;;;;;;-12.21;71.87;100832.03;4843002;29;20563;-78
2021/12/10 02:32:32;;;;;;;9.32;4.63;;;;;;;-12.16;72.16;100828.78;4842165;29;20052;-73
2021/12/10 02:34:57;;;;;;;10.77;5.90;;;;;;;-12.19;71.94;100833.81;4825488;29;20101;-72
2021/12/10 02:37:22;;;;;;;6.90;3.53;;;;;;;-12.20;71.71;100834.66;4825111;29;20052;-75
2021/12/10 02:39:47;;;;;;;3.28;2.40;;;;;;;-12.19;72.39;100835.53;4810087;29;20044;-75
2021/12/10 02:42:12;;;;;;;4.90;2.25;;;;;;;-12.20;72.68;100838.91;4842374;29;20412;-73
2021/12/10 02:44:37;;;;;;;9.48;4.97;;;;;;;-12.27;72.65;100836.91;4845376;29;20079;-72
2021/12/10 02:47:03;;;;;;;10.45;4.95;;;;;;;-12.29;72.65;100829.13;4845894;29;20104;-73
2021/12/10 02:49:28;;;;;;;11.20;5.90;;;;;;;-12.33;72.06;100840.13;4845800;29;20045;-72
2021/12/10 02:51:54;;;;;;;9.02;4.80;;;;;;;-12.25;72.79;100851.56;4844313;29;20523;-75
2021/12/10 02:54:23;;;;;;;8.77;4.43;;;;;;;-12.23;72.73;100841.38;4845081;29;20496;-72
2021/12/10 02:56:50;;;;;;;11.23;5.28;;;;;;;-12.17;72.27;100847.59;4845157;29;20528;-72
2021/12/10 02:59:15;;;;;;;13.43;6.13;;;;;;;-12.25;72.22;100848.13;4845799;29;20060;-70
2021/12/10 03:01:59;;;;;;;9.52;5.07;;;;;;;-12.32;72.70;100856.44;4828792;29;20044;-72
2021/12/10 03:04:24;;;;;;;11.07;5.60;;;;;;;-12.39;72.31;100850.16;4813574;29;20420;-71
2021/12/10 03:06:53;;;;;;;13.95;5.40;;;;;;;-12.37;72.51;100850.22;4845676;29;20293;-72
2021/12/10 03:09:21;;;;;;;16.45;6.85;;;;;;;-12.38;72.67;100856.16;4844333;29;20522;-72
2021/12/10 03:11:49;;;;;;;10.63;4.97;;;;;;;-12.36;73.23;100858.00;4798016;29;20427;-72
2021/12/10 03:14:17;;;;;;;10.93;4.88;;;;;;;-12.36;72.95;100863.13;4829576;29;20519;-68
2021/12/10 03:16:42;;;;;;;8.35;4.57;;;;;;;-12.35;73.45;100859.75;4845915;29;20420;-74
2021/12/10 03:19:08;;;;;;;11.88;5.38;;;;;;;-12.23;72.87;100867.06;4813727;29;20052;-72
2021/12/10 03:21:37;;;;;;;7.53;4.05;;;;;;;-12.24;72.49;100867.88;4845730;29;20041;-73
2021/12/10 03:24:02;;;;;;;8.05;4.63;;;;;;;-12.31;72.92;100864.19;4829154;29;20129;-73
2021/12/10 03:26:27;;;;;;;11.52;6.47;;;;;;;-12.34;72.63;100868.34;4829208;29;20095;-75
2021/12/10 03:28:53;;;;;;;9.00;4.63;;;;;;;-12.32;72.68;100862.44;4829703;29;20051;-73
2021/12/10 03:31:20;;;;;;;13.43;6.22;;;;;;;-12.35;72.88;100859.75;4829840;29;20076;-75
2021/12/10 03:33:46;;;;;;;10.50;6.00;;;;;;;-12.23;72.78;100862.78;4846807;29;20161;-70
2021/12/10 03:36:11;;;;;;;13.15;6.78;;;;;;;-12.31;72.65;100864.19;4846868;29;20053;-72
2021/12/10 03:38:38;;;;;;;13.10;6.10;;;;;;;-12.29;72.58;100857.41;4830487;29;20137;-73
2021/12/10 03:41:04;;;;;;;10.85;5.30;;;;;;;-12.31;73.24;100863.31;4845673;29;20025;-74
2021/12/10 03:43:29;;;;;;;4.97;2.88;;;;;;;-12.27;72.77;100862.59;4864305;29;20041;-71
2021/12/10 03:45:57;;;;;;;15.13;5.90;;;;;;;-12.31;73.15;100864.19;4848849;29;20041;-72
2021/12/10 03:48:25;;;;;;;4.95;2.58;;;;;;;-12.26;72.59;100867.81;4861729;29;20064;-67
2021/12/10 03:50:50;;;;;;;1.98;1.42;;;;;;;-12.28;73.11;100864.28;4846237;29;20052;-69
2021/12/10 03:53:17;;;;;;;14.40;5.03;;;;;;;-12.35;72.48;100862.31;4845037;29;20048;-68
2021/12/10 03:55:42;;;;;;;9.82;4.90;;;;;;;-12.35;72.84;100859.75;4827355;29;20048;-72
2021/12/10 03:58:08;;;;;;;12.93;6.15;;;;;;;-12.39;72.55;100855.28;4867432;29;20067;-69
2021/12/10 04:00:37;;;;;;;10.88;5.82;;;;;;;-12.37;73.29;100860.50;4881538;29;20047;-70
2021/12/10 04:03:02;;;;;;;11.40;5.85;;;;;;;-12.40;72.88;100855.22;4867547;29;20039;-68
2021/12/10 04:05:28;;;;;;;10.48;4.80;;;;;;;-12.28;72.41;100861.72;4882728;29;20533;-67
2021/12/10 04:07:54;;;;;;;12.23;6.57;;;;;;;-12.13;71.91;100867.47;4882596;29;20044;-70
2021/12/10 11:18:48;;;;;;;13.45;5.35;;;;;;;-9.31;57.55;101006.78;5004289;23;20069;-74
2021/12/10 11:21:15;;;;;;;5.00;3.35;;;;;;;-9.40;57.89;101001.34;4845654;29;20480;-74
2021/12/10 11:23:42;;;;;;;5.63;3.67;;;;;;;-9.46;58.78;101001.16;4828465;29;20503;-75
2021/12/10 11:26:07;;;;;;;10.68;4.80;;;;;;;-9.52;59.21;101006.13;4813181;29;20049;-75
2021/12/10 11:28:36;;;;;;;5.22;2.75;;;;;;;-9.41;59.19;101004.75;4845685;29;20468;-74
2021/12/10 11:31:13;;;;;;;8.48;4.43;;;;;;;-9.48;58.46;101005.41;4813153;29;20107;-76
2021/12/10 11:33:43;;;;;;;11.98;4.85;;;;;;;-9.40;59.12;101001.34;4844801;29;20045;-77
2021/12/10 11:36:12;;;;;;;10.15;4.57;;;;;;;-9.28;58.67;101000.84;4844087;29;20084;-74
2021/12/10 11:38:38;;;;;;;6.80;3.20;;;;;;;-9.27;58.29;101003.47;4844371;29;20059;-71
2021/12/10 11:41:11;;;;;;;11.77;5.38;;;;;;;-9.47;58.43;100985.59;4844282;29;20472;-71
2021/12/10 11:44:07;;;;;;;10.00;3.72;;;;;;;-9.35;58.59;100992.03;4827526;29;20053;-74
2021/12/10 11:46:48;;;;;;;7.40;5.10;;;;;;;-9.32;58.49;100986.97;4827382;29;20059;-72
2021/12/10 11:49:15;;;;;;;6.68;3.28;;;;;;;-9.32;58.52;100992.13;4862549;29;20152;-72
2021/12/10 11:52:08;;;;;;;7.82;2.72;;;;;;;-9.58;59.47;101001.66;4842404;29;20102;-71
2021/12/10 11:54:37;;;;;;;4.95;3.22;;;;;;;-9.56;60.10;100986.22;4827430;29;20048;-73
2021/12/10 11:57:14;;;;;;;8.07;4.93;;;;;;;-9.74;59.59;100985.66;4827663;29;20105;-73
2021/12/10 11:59:45;;;;;;;6.03;2.60;;;;;;;-9.71;59.92;100990.91;4844009;29;20624;-72
2021/12/10 12:02:17;;;;;;;13.20;5.78;;;;;;;-9.81;61.00;100986.28;4827142;29;20055;-71
2021/12/10 12:04:47;;;;;;;7.03;4.30;;;;;;;-9.83;60.30;100994.00;4843754;29;20033;-72
2021/12/10 12:07:45;;;;;;;6.57;2.67;;;;;;;-9.66;60.68;100990.22;4827020;29;20045;-73
2021/12/10 12:10:31;;;;;;;12.30;5.70;;;;;;;-9.81;60.35;100996.59;4844094;29;20136;-71
2021/12/10 12:12:59;;;;;;;10.52;3.97;;;;;;;-9.80;60.70;100998.34;4844037;29;20097;-77
2021/12/10 12:15:32;;;;;;;15.00;6.32;;;;;;;-9.78;61.06;100997.56;4844119;29;20408;-71
2021/12/10 12:17:56;;;;;;;6.15;4.22;;;;;;;-9.78;61.43;100992.41;4851909;29;20128;-70
2021/12/10 12:20:24;;;;;;;6.22;3.40;;;;;;;-9.75;60.75;101001.97;4845407;29;20048;-70
2021/12/10 12:25:42;;;;;;;13.82;6.25;;;;;;;-9.95;62.13;100996.19;4844132;29;20052;-68
2021/12/10 12:28:11;;;;;;;15.02;6.82;;;;;;;-9.93;61.64;100989.38;4828005;29;20052;-67
2021/12/10 12:31:00;;;;;;;12.65;6.07;;;;;;;-9.99;62.27;100992.63;4844536;29;20113;-68
2021/12/10 12:33:28;;;;;;;13.52;6.63;;;;;;;-10.05;62.69;100981.22;4812353;29;20193;-66
2021/12/10 12:35:55;;;;;;;20.65;7.00;;;;;;;-10.07;62.13;100988.03;4813342;29;20067;-68
2021/12/10 12:38:27;;;;;;;14.82;6.93;;;;;;;-10.11;62.71;100984.47;4814203;29;20056;-68
2021/12/10 12:41:19;;;;;;;9.93;5.07;;;;;;;-9.90;62.58;100994.59;4830378;29;20121;-69
2021/12/10 12:43:49;;;;;;;12.23;6.50;;;;;;;-9.90;62.48;100995.47;4846490;29;20527;-69
2021/12/10 12:46:16;;;;;;;13.07;6.20;;;;;;;-10.00;62.69;100993.44;4827929;29;20491;-67
2021/12/10 12:49:01;;;;;;;13.45;7.07;;;;;;;-10.06;62.69;100995.81;4844215;29;20060;-68
2021/12/10 12:51:27;;;;;;;16.85;6.45;;;;;;;-9.85;62.68;100999.91;4844479;29;20045;-68
2021/12/10 12:53:53;;;;;;;15.13;6.50;;;;;;;-9.98;62.59;100988.34;4843993;29;20041;-68
2021/12/10 12:56:23;;;;;;;18.40;8.38;;;;;;;-10.15;63.04;100995.50;4844082;29;20073;-68
2021/12/10 12:59:10;;;;;;;19.45;8.80;;;;;;;-10.22;63.42;100993.59;4844157;29;20044;-68
2021/12/10 13:01:40;;;;;;;19.02;7.65;;;;;;;-10.33;63.06;100992.34;4844992;29;20088;-69
2021/12/10 13:04:10;;;;;;;12.18;6.35;;;;;;;-10.25;63.26;100993.47;4844996;29;20041;-68
2021/12/10 13:06:45;;;;;;;18.83;8.88;;;;;;;-10.39;63.26;100987.88;4853670;29;20057;-70
2021/12/10 13:09:16;;;;;;;6.55;4.50;;;;;;;-10.31;63.64;100990.72;4859214;29;20073;-68
2021/12/10 13:11:51;;;;;;;18.08;7.78;;;;;;;-10.31;63.02;100999.31;4838275;29;20086;-68
2021/12/10 13:14:19;;;;;;;21.50;8.63;;;;;;;-10.51;63.77;100997.78;4849747;29;20602;-68
2021/12/10 13:16:46;;;;;;;8.50;3.92;;;;;;;-10.39;64.05;100989.59;4852658;29;20063;-68
2021/12/10 13:19:17;;;;;;;16.00;7.53;;;;;;;-10.52;63.78;101003.75;4857610;29;20566;-69
2021/12/10 13:21:45;;;;;;;11.82;5.93;;;;;;;-10.54;64.24;101004.50;4840343;29;20499;-69
2021/12/10 13:24:12;;;;;;;10.80;4.28;;;;;;;-10.23;64.06;100994.41;4847071;29;20043;-67
2021/12/10 13:26:36;;;;;;;14.23;6.20;;;;;;;-10.39;63.12;100992.16;4843909;29;20135;-69
2021/12/10 13:29:01;;;;;;;18.08;8.18;;;;;;;-10.59;64.02;100996.63;4827297;29;20132;-68
2021/12/10 13:31:26;;;;;;;14.68;7.32;;;;;;;-10.59;64.58;101006.91;4826752;29;20055;-67
2021/12/10 13:33:51;;;;;;;5.75;3.03;;;;;;;-10.62;64.87;101008.53;4842988;29;20089;-67
2021/12/10 13:36:16;;;;;;;12.18;6.63;;;;;;;-10.49;64.41;101002.94;4795790;29;20041;-64
2021/12/10 13:38:49;;;;;;;25.25;8.82;;;;;;;-10.59;63.90;100998.31;4842860;29;20041;-65
2021/12/10 13:41:17;;;;;;;14.00;6.22;;;;;;;-10.75;64.88;101004.66;4841945;29;20049;-65
2021/12/10 13:43:48;;;;;;;12.60;6.25;;;;;;;-10.56;64.50;101008.72;4828135;29;20075;-65
2021/12/10 13:46:14;;;;;;;14.07;5.50;;;;;;;-10.55;64.40;101013.06;4845019;29;20044;-65
2021/12/10 13:48:42;;;;;;;8.65;5.00;;;;;;;-10.60;64.41;101009.44;4826143;29;20502;-63
2021/12/10 13:51:09;;;;;;;9.50;4.40;;;;;;;-10.68;64.45;101002.31;4842509;29;20060;-64
2021/12/10 13:53:34;;;;;;;22.83;8.10;;;;;;;-10.75;64.50;101000.38;4842606;29;20072;-65
2021/12/10 13:56:10;;;;;;;13.60;7.00;;;;;;;-10.85;65.54;101000.00;4842441;29;20088;-65
2021/12/10 13:58:47;;;;;;;13.30;5.40;;;;;;;-10.84;65.27;101004.31;4842750;29;20135;-65
2021/12/10 14:01:19;;;;;;;3.97;3.17;;;;;;;-10.73;65.68;100998.72;4825880;29;20100;-64
2021/12/10 14:03:52;;;;;;;12.48;7.30;;;;;;;-10.97;65.30;101007.28;4826042;29;20041;-65
2021/12/10 14:06:34;;;;;;;7.88;4.32;;;;;;;-10.96;65.70;100998.72;4842538;29;20466;-64
2021/12/10 14:09:20;;;;;;;11.13;5.28;;;;;;;-10.91;65.64;101002.31;4826638;29;20048;-68
2021/12/10 14:12:12;;;;;;;10.65;6.10;;;;;;;-10.96;65.48;101009.03;4842369;29;20500;-65
2021/12/10 14:14:40;;;;;;;7.85;4.53;;;;;;;-10.95;65.52;101006.50;4868852;29;20051;-64
2021/12/10 14:17:10;;;;;;;10.93;5.97;;;;;;;-10.95;65.84;101005.63;4868355;29;20076;-64
2021/12/10 14:19:41;;;;;;;16.17;7.07;;;;;;;-11.00;65.61;101010.59;4868518;29;20051;-64
2021/12/10 14:22:09;;;;;;;7.95;4.28;;;;;;;-11.12;65.98;101013.59;4838460;29;20047;-67
2021/12/10 14:24:41;;;;;;;12.25;6.18;;;;;;;-10.97;65.79;101008.16;4866957;29;20496;-66
2021/12/10 14:27:27;;;;;;;12.20;7.00;;;;;;;-10.88;66.15;101003.31;4851525;29;20517;-64
2021/12/10 14:30:11;;;;;;;6.72;4.30;;;;;;;-10.96;65.84;100999.59;4836344;29;20127;-66
2021/12/10 14:32:36;;;;;;;12.73;6.43;;;;;;;-11.02;65.75;101009.66;4870011;29;20052;-64
2021/12/10 14:35:07;;;;;;;10.48;5.50;;;;;;;-11.02;65.93;101004.50;4869049;29;20045;-64
2021/12/10 14:38:06;;;;;;;9.02;4.07;;;;;;;-11.10;66.04;101005.94;4868269;29;20048;-65
2021/12/10 14:40:47;;;;;;;5.75;3.22;;;;;;;-11.16;66.32;100998.84;4832067;29;20084;-62
2021/12/10 14:43:14;;;;;;;11.18;6.55;;;;;;;-11.13;66.32;101009.28;4813830;29;20065;-64
2021/12/10 14:46:12;;;;;;;14.63;6.80;;;;;;;-11.24;66.27;101007.13;4830589;29;20053;-66
2021/12/10 14:48:59;;;;;;;9.63;5.57;;;;;;;-11.30;65.90;101005.22;4732493;30;20063;-64
2021/12/10 14:51:25;;;;;;;9.82;5.85;;;;;;;-11.30;66.73;101012.06;4698055;30;20563;-66
2021/12/10 14:53:53;;;;;;;14.45;7.28;;;;;;;-11.45;66.54;100997.78;4698092;30;20657;-64
2021/12/10 14:56:38;;;;;;;19.23;8.80;;;;;;;-11.46;66.80;101010.59;4687623;30;20048;-67
2021/12/10 14:59:08;;;;;;;6.68;3.78;;;;;;;-11.44;66.89;101008.94;4686186;30;20056;-65
2021/12/10 15:01:37;;;;;;;9.80;5.35;;;;;;;-11.46;66.75;101014.03;4715501;30;20063;-65
2021/12/10 15:04:20;;;;;;;6.20;3.42;;;;;;;-11.51;66.74;101018.09;4715430;30;20391;-64
2021/12/10 15:06:58;;;;;;;10.80;5.90;;;;;;;-11.39;66.29;101010.88;4715284;30;20060;-63
2021/12/10 15:09:24;;;;;;;19.20;6.28;;;;;;;-11.43;66.47;101021.88;4715363;30;20064;-66
2021/12/10 15:11:59;;;;;;;10.80;5.68;;;;;;;-11.30;66.34;101015.50;4715266;30;20064;-65
2021/12/10 15:14:32;;;;;;;12.48;5.60;;;;;;;-11.33;66.60;101012.81;4715246;30;20060;-65
2021/12/10 15:17:10;;;;;;;12.48;6.60;;;;;;;-11.53;66.58;101021.47;4734277;29;20643;-65
2021/12/10 15:19:43;;;;;;;13.35;6.05;;;;;;;-11.63;67.59;101027.06;4754398;29;20062;-66
2021/12/10 15:22:10;;;;;;;15.00;6.90;;;;;;;-11.64;67.77;101030.47;4754533;29;20138;-68
2021/12/10 15:24:43;;;;;;;9.30;4.88;;;;;;;-11.58;67.40;101023.84;4788118;29;20056;-67
2021/12/10 15:27:11;;;;;;;15.75;4.47;;;;;;;-11.44;67.32;101037.25;4862383;29;20619;-70
2021/12/10 15:29:41;;;;;;;12.15;7.43;;;;;;;-11.45;66.98;101023.50;4862370;29;20058;-66
2021/12/10 15:32:16;;;;;;;16.15;6.45;;;;;;;-11.42;66.65;101021.06;4862270;29;20607;-67
2021/12/10 15:34:46;;;;;;;8.57;4.43;;;;;;;-11.52;66.81;101011.25;4854587;29;20053;-66
2021/12/10 15:37:16;;;;;;;13.65;7.18;;;;;;;-11.43;66.82;101015.84;4844467;29;20101;-68
2021/12/10 15:39:46;;;;;;;12.57;6.30;;;;;;;-11.61;66.88;101020.28;4844421;29;20518;-69
2021/12/10 15:42:17;;;;;;;7.70;4.25;;;;;;;-11.66;67.19;101016.66;4812438;29;20484;-69
2021/12/10 15:44:42;;;;;;;9.35;6.15;;;;;;;-11.66;67.49;101017.53;4844490;29;20096;-67
2021/12/10 15:47:10;;;;;;;16.17;6.65;;;;;;;-11.60;67.44;101022.91;4844482;29;20045;-71
2021/12/10 15:49:37;;;;;;;6.63;4.30;;;;;;;-11.44;66.93;101014.09;4828254;29;20048;-75
2021/12/10 15:52:06;;;;;;;13.02;7.10;;;;;;;-11.63;66.88;101017.66;4844447;29;20045;-68
2021/12/10 15:54:37;;;;;;;14.15;4.70;;;;;;;-11.60;67.13;101017.75;4827548;29;20059;-70
2021/12/10 15:57:17;;;;;;;8.40;4.88;;;;;;;-11.68;67.11;101014.03;4844065;29;20041;-65
2021/12/10 15:59:45;;;;;;;12.05;3.78;;;;;;;-11.61;67.76;101010.84;4862340;29;20117;-67
2021/12/10 16:02:13;;;;;;;11.27;5.93;;;;;;;-11.72;67.53;101014.69;4870028;29;20055;-66
2021/12/10 16:04:43;;;;;;;10.00;3.90;;;;;;;-11.62;67.04;101010.81;4878811;29;20194;-65
2021/12/10 16:07:12;;;;;;;11.02;6.22;;;;;;;-11.66;67.54;101011.50;4881344;29;20056;-65
2021/12/10 16:09:37;;;;;;;16.00;6.32;;;;;;;-11.69;66.94;101009.69;4867052;29;20127;-64
2021/12/10 16:12:04;;;;;;;5.75;2.90;;;;;;;-11.61;67.06;101005.72;4862174;29;20139;-67
2021/12/10 16:14:31;;;;;;;9.88;4.82;;;;;;;-11.61;66.98;101000.56;4845099;29;20113;-66
2021/12/10 16:16:58;;;;;;;14.05;5.05;;;;;;;-11.55;66.78;101010.22;4845173;29;20056;-68
2021/12/10 16:19:28;;;;;;;12.88;6.97;;;;;;;-11.66;66.59;101017.53;4862397;29;20076;-63
2021/12/10 16:22:10;;;;;;;10.63;6.03;;;;;;;-11.70;67.21;101000.22;4863125;29;20085;-67
2021/12/10 16:24:40;;;;;;;10.00;6.07;;;;;;;-11.73;67.01;101000.09;4862844;29;20131;-64
2021/12/10 16:27:16;;;;;;;6.72;4.57;;;;;;;-11.60;67.15;101010.03;4862624;29;20105;-65
2021/12/10 16:29:46;;;;;;;13.48;6.90;;;;;;;-11.69;67.20;101003.66;4862526;29;20072;-65
2021/12/10 16:32:16;;;;;;;11.98;6.22;;;;;;;-11.71;67.00;101002.72;4862470;29;20044;-65
2021/12/10 16:34:44;;;;;;;16.02;6.35;;;;;;;-11.85;67.44;101005.66;4846243;29;20044;-65
2021/12/10 16:37:11;;;;;;;18.90;8.05;;;;;;;-11.83;67.83;101010.88;4845208;29;20055;-64
2021/12/10 16:39:41;;;;;;;13.50;5.70;;;;;;;-11.82;67.65;101012.63;4862084;29;20076;-64
2021/12/10 16:42:07;;;;;;;18.13;6.85;;;;;;;-11.66;67.65;101004.69;4865021;29;20155;-65
2021/12/10 16:44:32;;;;;;;11.00;6.97;;;;;;;-11.51;67.28;101002.66;4862381;29;20041;-65
2021/12/10 16:47:03;;;;;;;15.25;6.85;;;;;;;-11.73;67.11;101002.66;4862052;29;20044;-65
2021/12/10 16:49:31;;;;;;;6.70;4.85;;;;;;;-11.77;67.34;101003.41;4845011;29;20507;-66
2021/12/10 16:52:01;;;;;;;7.60;4.32;;;;;;;-11.86;67.50;100997.91;4845404;29;20060;-67
2021/12/10 16:54:30;;;;;;;12.25;6.25;;;;;;;-11.98;67.59;101003.44;4845406;29;20484;-66
2021/12/10 16:56:59;;;;;;;5.85;4.05;;;;;;;-11.87;68.55;100998.72;4862186;29;20555;-67
2021/12/10 16:59:26;;;;;;;13.30;6.60;;;;;;;-11.95;68.29;100984.66;4829558;29;20131;-67
2021/12/10 17:01:58;;;;;;;11.30;6.45;;;;;;;-11.90;67.85;100981.47;4861279;29;20526;-67
2021/12/10 17:04:28;;;;;;;10.88;5.85;;;;;;;-12.00;68.28;100978.47;4844975;29;20044;-66
2021/12/10 17:07:01;;;;;;;11.50;6.38;;;;;;;-12.05;68.76;100974.84;4829276;29;20131;-65
2021/12/10 17:09:26;;;;;;;12.80;6.32;;;;;;;-12.08;67.99;100982.44;4861714;29;20519;-65
2021/12/10 17:11:55;;;;;;;14.23;8.75;;;;;;;-11.95;68.53;100984.66;4820700;29;20044;-67
2021/12/10 17:14:28;;;;;;;14.13;6.30;;;;;;;-11.88;68.19;101004.69;4880359;29;20100;-65
2021/12/10 17:17:25;;;;;;;24.50;7.83;;;;;;;-11.93;68.01;100998.47;4879330;29;20050;-67
2021/12/10 17:20:00;;;;;;;26.00;7.28;;;;;;;-12.01;68.50;101002.44;4807800;29;20049;-66
2021/12/10 17:22:31;;;;;;;12.95;5.97;;;;;;;-12.14;68.02;101006.19;4795046;29;20046;-67
2021/12/10 17:25:02;;;;;;;14.85;7.03;;;;;;;-12.23;68.86;101014.41;4809275;29;20142;-66
2021/12/10 17:27:30;;;;;;;15.13;5.30;;;;;;;-12.24;69.23;101004.94;4795754;29;20084;-65
2021/12/10 17:30:06;;;;;;;12.40;6.35;;;;;;;-12.16;69.12;101008.69;4812038;29;20076;-66
2021/12/10 17:32:31;;;;;;;8.00;4.90;;;;;;;-12.06;68.62;101007.38;4797250;29;20501;-63
2021/12/10 17:35:06;;;;;;;9.05;4.25;;;;;;;-12.01;68.44;101017.84;4795387;29;20049;-65
2021/12/10 17:37:33;;;;;;;11.60;6.15;;;;;;;-12.14;68.81;101019.03;4818977;29;20252;-65
2021/12/10 17:40:21;;;;;;;13.23;6.85;;;;;;;-12.24;69.17;101025.50;4818859;29;20096;-68
2021/12/10 17:42:49;;;;;;;19.65;8.43;;;;;;;-12.10;68.66;101033.78;4810357;29;20057;-63
2021/12/10 17:45:21;;;;;;;5.93;3.75;;;;;;;-12.17;68.77;101036.91;4795786;29;20046;-64
2021/12/10 17:47:49;;;;;;;8.20;3.13;;;;;;;-12.21;69.05;101043.63;4808467;29;20048;-65
2021/12/10 17:50:20;;;;;;;20.15;6.25;;;;;;;-12.16;69.16;101044.69;4811619;29;20580;-65
2021/12/10 17:52:49;;;;;;;14.50;6.95;;;;;;;-12.14;68.19;101037.91;4816738;29;20153;-64
2021/12/10 17:55:17;;;;;;;15.30;4.80;;;;;;;-12.23;68.46;101039.22;4810965;29;20441;-64
2021/12/10 17:57:49;;;;;;;12.10;6.78;;;;;;;-12.28;69.13;101035.56;4872456;29;20078;-64
2021/12/10 18:00:25;;;;;;;8.77;5.38;;;;;;;-12.14;68.67;101034.47;4879907;29;20138;-64
2021/12/10 18:03:03;;;;;;;12.40;6.30;;;;;;;-12.23;68.67;101034.97;4862885;29;20058;-65
2021/12/10 18:05:30;;;;;;;14.10;6.57;;;;;;;-12.27;68.79;101040.78;4862947;29;20063;-63
2021/12/10 18:07:55;;;;;;;9.25;4.57;;;;;;;-12.28;68.89;101049.31;4879729;29;20418;-65
2021/12/10 18:10:27;;;;;;;16.40;6.45;;;;;;;-12.10;68.57;101043.19;4871371;29;20465;-65
2021/12/10 18:12:56;;;;;;;4.90;3.47;;;;;;;-12.04;68.30;101028.00;4869694;29;20047;-65
2021/12/10 18:15:30;;;;;;;16.33;6.00;;;;;;;-11.87;67.86;101029.59;4843208;29;20131;-65
2021/12/10 18:18:00;;;;;;;;;;;;;;;-12.03;68.44;101035.78;4842914;29;20080;-63
2021/12/10 18:20:33;;;;;;;7.38;4.00;;;;;;;-12.01;68.31;101038.41;4842672;29;19931;-63
2021/12/10 18:23:08;;;;;;;17.02;6.97;;;;;;;-12.25;67.64;101038.28;4825867;29;20041;-65
2021/12/10 18:25:48;;;;;;;14.57;6.13;;;;;;;-12.30;68.74;101047.50;4843133;29;20049;-64
2021/12/10 18:28:21;;;;;;;3.75;2.10;;;;;;;-12.33;68.33;101053.38;4826722;29;20049;-64
2021/12/10 18:30:49;;;;;;;4.65;2.67;;;;;;;-12.35;69.25;101062.72;4843409;29;20392;-64
2021/12/10 18:33:15;;;;;;;14.35;5.63;;;;;;;-12.40;69.16;101058.19;4843767;29;20055;-65
2021/12/10 18:35:44;;;;;;;7.18;3.60;;;;;;;-12.40;68.91;101077.03;4828718;29;20052;-68
2021/12/10 18:38:11;;;;;;;15.82;6.65;;;;;;;-12.43;69.54;101076.94;4830953;29;20049;-69
2021/12/10 18:41:02;;;;;;;11.75;6.70;;;;;;;-12.46;69.25;101081.94;4828795;29;20052;-68
2021/12/10 18:43:32;;;;;;;12.50;5.55;;;;;;;-12.48;69.22;101096.38;4837106;29;20571;-69
2021/12/10 18:46:14;;;;;;;10.93;5.45;;;;;;;-12.46;69.26;101089.63;4844431;29;20499;-69
2021/12/10 18:48:40;;;;;;;13.93;5.75;;;;;;;-12.45;69.62;101085.38;4827379;29;20212;-68
2021/12/10 18:51:17;;;;;;;11.07;4.82;;;;;;;-12.30;70.01;101091.19;4844106;29;20116;-69